Time;durP1;ratioP1;P1;durP2;ratioP2;P2;SDS_P1;SDS_P2;PMS_P1;PMS_P2;Temp;Humidity;BMP_temperature;BMP_pressure;BME280_temperature;BME280_humidity;BME280_pressure;Samples;Min_cycle;Max_cycle;Signal;HPM_P1;HPM_P2
2022/11/09 00:02:26;;;;;;;1.30;1.20;;;;;;;;;;5055574;28;20717;-86
2022/11/09 00:04:53;;;;;;;1.42;1.33;;;;;;;;;;5055649;28;20727;-85
2022/11/09 00:07:21;;;;;;;1.83;1.50;;;;;;;;;;5055564;28;20254;-85
2022/11/09 00:09:48;;;;;;;1.30;1.23;;;;;;;;;;5054600;28;20285;-85
2022/11/09 00:12:16;;;;;;;1.48;1.27;;;;;;;;;;5055756;28;20312;-85
2022/11/09 00:14:45;;;;;;;1.80;1.40;;;;;;;;;;5055857;28;20296;-85
2022/11/09 00:17:12;;;;;;;2.38;1.65;;;;;;;;;;5055404;28;20343;-85
2022/11/09 00:19:40;;;;;;;1.77;1.60;;;;;;;;;;5054721;28;20320;-85
2022/11/09 00:22:07;;;;;;;0.90;0.90;;;;;;;;;;5055393;28;20257;-86
2022/11/09 00:24:35;;;;;;;1.90;1.70;;;;;;;;;;5056013;28;20288;-85
2022/11/09 00:27:02;;;;;;;1.65;1.52;;;;;;;;;;5056846;28;20202;-85
2022/11/09 00:29:30;;;;;;;1.60;1.50;;;;;;;;;;5056891;28;20289;-85
2022/11/09 00:32:00;;;;;;;2.50;1.42;;;;;;;;;;5056908;28;20270;-84
2022/11/09 00:34:27;;;;;;;1.13;1.10;;;;;;;;;;5056023;28;20209;-85
2022/11/09 00:36:55;;;;;;;1.55;1.45;;;;;;;;;;5055542;28;20277;-84
2022/11/09 00:39:22;;;;;;;1.50;1.40;;;;;;;;;;5055628;28;20309;-85
2022/11/09 00:41:50;;;;;;;2.35;1.48;;;;;;;;;;5056450;28;20311;-86
2022/11/09 00:44:17;;;;;;;1.40;1.30;;;;;;;;;;5057744;28;20296;-86
2022/11/09 00:46:45;;;;;;;3.88;3.38;;;;;;;;;;5077622;28;20215;-85
2022/11/09 00:49:14;;;;;;;1.60;1.35;;;;;;;;;;5076577;28;20247;-85
2022/11/09 00:51:41;;;;;;;1.00;1.00;;;;;;;;;;5077015;28;20248;-84
2022/11/09 00:54:09;;;;;;;1.55;1.40;;;;;;;;;;5077641;28;20228;-85
2022/11/09 00:56:36;;;;;;;2.00;1.60;;;;;;;;;;5077580;28;20235;-85
2022/11/09 00:59:04;;;;;;;1.33;1.20;;;;;;;;;;5076425;28;20351;-84
2022/11/09 01:01:31;;;;;;;2.78;1.58;;;;;;;;;;5077084;28;20307;-85
2022/11/09 01:03:59;;;;;;;2.00;1.73;;;;;;;;;;5076967;28;20683;-85
2022/11/09 01:06:28;;;;;;;2.22;1.35;;;;;;;;;;5063125;28;20293;-84
2022/11/09 01:08:55;;;;;;;2.00;1.40;;;;;;;;;;5056392;28;20654;-85
2022/11/09 01:11:23;;;;;;;2.63;1.50;;;;;;;;;;5056793;28;20308;-85
2022/11/09 01:13:51;;;;;;;1.88;1.50;;;;;;;;;;5056773;28;20312;-84
2022/11/09 01:16:22;;;;;;;1.95;1.58;;;;;;;;;;5057299;28;20323;-85
2022/11/09 01:18:52;;;;;;;1.45;1.35;;;;;;;;;;5056502;28;20293;-84
2022/11/09 01:21:19;;;;;;;1.58;1.42;;;;;;;;;;5054958;28;20308;-85
2022/11/09 01:23:48;;;;;;;1.40;1.30;;;;;;;;;;5055906;28;20339;-85
2022/11/09 01:26:17;;;;;;;1.42;1.30;;;;;;;;;;5056928;28;20339;-84
2022/11/09 01:28:44;;;;;;;1.60;1.45;;;;;;;;;;5055728;28;20197;-85
2022/11/09 01:31:14;;;;;;;2.17;1.58;;;;;;;;;;5055517;28;20268;-85
2022/11/09 01:33:42;;;;;;;1.50;1.40;;;;;;;;;;5055593;28;20202;-86
2022/11/09 01:36:13;;;;;;;1.92;1.83;;;;;;;;;;5044327;28;20669;-85
2022/11/09 01:38:41;;;;;;;1.73;1.63;;;;;;;;;;5036889;28;20222;-84
2022/11/09 01:41:14;;;;;;;1.35;1.25;;;;;;;;;;5034800;28;20253;-85
2022/11/09 01:43:42;;;;;;;1.95;1.50;;;;;;;;;;5033839;28;20722;-85
2022/11/09 01:46:18;;;;;;;2.33;1.58;;;;;;;;;;5034508;28;20305;-85
2022/11/09 01:48:50;;;;;;;1.40;1.30;;;;;;;;;;5034938;28;20205;-85
2022/11/09 01:51:25;;;;;;;1.85;1.30;;;;;;;;;;5036718;28;20222;-85
2022/11/09 01:53:58;;;;;;;1.48;1.38;;;;;;;;;;5036343;28;20281;-86
2022/11/09 01:56:27;;;;;;;1.50;1.40;;;;;;;;;;5035401;28;20682;-85
2022/11/09 01:58:58;;;;;;;1.98;1.38;;;;;;;;;;5033974;28;20218;-85
2022/11/09 02:01:26;;;;;;;2.90;1.33;;;;;;;;;;5033505;28;20253;-85
2022/11/09 02:03:57;;;;;;;2.30;2.08;;;;;;;;;;5035353;28;20969;-85
2022/11/09 02:06:27;;;;;;;1.20;1.20;;;;;;;;;;5048793;28;20220;-85
2022/11/09 02:08:59;;;;;;;2.40;1.52;;;;;;;;;;5055464;28;20807;-86
2022/11/09 02:11:29;;;;;;;1.40;1.30;;;;;;;;;;5056145;28;20293;-85
2022/11/09 02:13:59;;;;;;;3.25;2.15;;;;;;;;;;5057035;28;20286;-85
2022/11/09 02:16:27;;;;;;;1.75;1.65;;;;;;;;;;5058430;28;20308;-85
2022/11/09 02:18:57;;;;;;;1.58;1.48;;;;;;;;;;5058742;28;20208;-85
2022/11/09 02:21:28;;;;;;;1.50;1.40;;;;;;;;;;5058530;28;20309;-86
2022/11/09 02:23:56;;;;;;;1.90;1.60;;;;;;;;;;5058662;28;20197;-85
2022/11/09 02:26:28;;;;;;;1.98;1.65;;;;;;;;;;5058265;28;20279;-84
2022/11/09 02:28:57;;;;;;;1.85;1.63;;;;;;;;;;5076031;28;20207;-84
2022/11/09 02:31:31;;;;;;;1.60;1.50;;;;;;;;;;5078512;28;20379;-84
2022/11/09 02:34:04;;;;;;;1.95;1.70;;;;;;;;;;5078247;28;20191;-85
2022/11/09 02:36:33;;;;;;;3.33;2.00;;;;;;;;;;5063117;28;20209;-85
2022/11/09 02:39:01;;;;;;;2.63;1.88;;;;;;;;;;5057101;28;20208;-84
2022/11/09 02:41:31;;;;;;;2.40;2.20;;;;;;;;;;5056566;28;20313;-84
2022/11/09 02:44:00;;;;;;;2.10;1.70;;;;;;;;;;5056199;28;20281;-86
2022/11/09 02:46:33;;;;;;;1.92;1.73;;;;;;;;;;5055721;28;20213;-85
2022/11/09 02:49:01;;;;;;;2.17;1.90;;;;;;;;;;5056311;28;20293;-85
2022/11/09 02:51:28;;;;;;;2.47;2.28;;;;;;;;;;5055656;28;20218;-85
2022/11/09 02:53:58;;;;;;;2.58;2.38;;;;;;;;;;5055777;28;20289;-85
2022/11/09 02:56:26;;;;;;;3.08;2.38;;;;;;;;;;5056156;28;20202;-85
2022/11/09 02:58:53;;;;;;;2.13;1.92;;;;;;;;;;5055338;28;20205;-86
2022/11/09 03:01:21;;;;;;;6.10;2.78;;;;;;;;;;5054852;28;20308;-85
2022/11/09 03:03:48;;;;;;;2.92;1.90;;;;;;;;;;5055307;28;20236;-86
2022/11/09 03:06:16;;;;;;;3.05;2.10;;;;;;;;;;5054851;28;20355;-85
2022/11/09 03:08:44;;;;;;;4.05;2.13;;;;;;;;;;5055327;28;20248;-85
2022/11/09 03:11:12;;;;;;;2.50;2.10;;;;;;;;;;5055988;28;20306;-85
2022/11/09 03:13:40;;;;;;;2.28;2.08;;;;;;;;;;5055321;28;20292;-85
2022/11/09 03:16:10;;;;;;;2.17;2.08;;;;;;;;;;5055125;28;20256;-85
2022/11/09 03:18:37;;;;;;;2.17;2.08;;;;;;;;;;5054947;28;20247;-85
2022/11/09 03:21:06;;;;;;;2.75;2.55;;;;;;;;;;5054434;28;20316;-85
2022/11/09 03:23:34;;;;;;;2.88;2.33;;;;;;;;;;5055361;28;20272;-85
2022/11/09 03:26:01;;;;;;;2.55;2.35;;;;;;;;;;5054408;28;20273;-86
2022/11/09 03:28:30;;;;;;;2.33;2.13;;;;;;;;;;5054381;28;20737;-85
2022/11/09 03:30:58;;;;;;;1.83;1.73;;;;;;;;;;5055049;28;20260;-85
2022/11/09 03:33:25;;;;;;;2.35;2.05;;;;;;;;;;5055160;28;20281;-86
2022/11/09 03:35:52;;;;;;;2.50;2.30;;;;;;;;;;5055000;28;20296;-85
2022/11/09 03:38:20;;;;;;;2.47;2.22;;;;;;;;;;5054437;28;20292;-85
2022/11/09 03:40:47;;;;;;;2.35;2.22;;;;;;;;;;5054993;28;20316;-85
2022/11/09 03:43:15;;;;;;;1.90;1.80;;;;;;;;;;5054416;28;20265;-86
2022/11/09 03:45:44;;;;;;;2.97;2.70;;;;;;;;;;5056675;28;20292;-85
2022/11/09 03:48:11;;;;;;;2.55;2.35;;;;;;;;;;5056766;28;20288;-86
2022/11/09 03:50:39;;;;;;;1.80;1.70;;;;;;;;;;5057929;28;20304;-86
2022/11/09 03:53:08;;;;;;;2.50;2.30;;;;;;;;;;5056679;28;20201;-84
2022/11/09 03:55:36;;;;;;;2.15;1.95;;;;;;;;;;5055970;28;20202;-85
2022/11/09 03:58:03;;;;;;;2.35;2.15;;;;;;;;;;5055622;28;20289;-85
2022/11/09 04:00:31;;;;;;;2.60;2.40;;;;;;;;;;5054614;28;20959;-85
2022/11/09 04:03:01;;;;;;;2.50;2.30;;;;;;;;;;5055760;28;20206;-85
2022/11/09 04:05:28;;;;;;;2.05;1.95;;;;;;;;;;5055767;28;20240;-84
2022/11/09 04:07:57;;;;;;;2.38;2.20;;;;;;;;;;5055358;28;20216;-84
2022/11/09 04:10:26;;;;;;;1.95;1.80;;;;;;;;;;5055564;28;20221;-85
2022/11/09 04:12:54;;;;;;;2.03;1.73;;;;;;;;;;5054982;28;20678;-85
2022/11/09 04:15:22;;;;;;;1.95;1.83;;;;;;;;;;5054893;28;20670;-85
2022/11/09 04:17:57;;;;;;;1.92;1.80;;;;;;;;;;5055584;28;20202;-85
2022/11/09 04:20:26;;;;;;;1.55;1.42;;;;;;;;;;5053538;28;20237;-85
2022/11/09 04:22:57;;;;;;;1.50;1.40;;;;;;;;;;5054864;28;20298;-85
2022/11/09 04:25:25;;;;;;;1.85;1.75;;;;;;;;;;5055239;28;20725;-86
2022/11/09 04:27:57;;;;;;;1.95;1.75;;;;;;;;;;5055499;28;20204;-84
2022/11/09 04:30:26;;;;;;;1.70;1.60;;;;;;;;;;5055954;28;20232;-85
2022/11/09 04:32:54;;;;;;;1.25;1.17;;;;;;;;;;5054926;28;20205;-85
2022/11/09 04:35:21;;;;;;;1.33;1.23;;;;;;;;;;5054588;28;20213;-85
2022/11/09 04:37:55;;;;;;;1.50;1.40;;;;;;;;;;5053837;28;20316;-84
2022/11/09 04:40:24;;;;;;;1.15;1.15;;;;;;;;;;5053026;28;20225;-85
2022/11/09 04:42:51;;;;;;;1.88;1.77;;;;;;;;;;5054109;28;20225;-85
2022/11/09 04:45:19;;;;;;;1.40;1.30;;;;;;;;;;5054513;28;20206;-85
2022/11/09 04:47:47;;;;;;;1.55;1.40;;;;;;;;;;5053623;28;20229;-85
2022/11/09 04:50:14;;;;;;;1.35;1.25;;;;;;;;;;5053444;28;20236;-86
2022/11/09 04:52:42;;;;;;;1.30;1.17;;;;;;;;;;5053092;28;20297;-86
2022/11/09 04:55:11;;;;;;;1.13;0.90;;;;;;;;;;5053281;28;20288;-85
2022/11/09 04:57:38;;;;;;;1.55;1.45;;;;;;;;;;5053562;28;20211;-84
2022/11/09 05:00:07;;;;;;;1.75;1.50;;;;;;;;;;5053242;28;20284;-85
2022/11/09 05:02:34;;;;;;;1.35;1.25;;;;;;;;;;5053343;28;20229;-86
2022/11/09 05:05:02;;;;;;;1.00;1.00;;;;;;;;;;5053908;28;20296;-86
2022/11/09 05:07:29;;;;;;;1.60;1.50;;;;;;;;;;5054164;28;20256;-85
2022/11/09 05:09:57;;;;;;;1.10;1.00;;;;;;;;;;5054201;28;20289;-86
2022/11/09 05:12:26;;;;;;;1.20;1.20;;;;;;;;;;5053517;28;20280;-86
2022/11/09 05:14:53;;;;;;;1.30;1.20;;;;;;;;;;5054615;28;20285;-85
2022/11/09 05:17:21;;;;;;;2.10;2.00;;;;;;;;;;5053839;28;20292;-85
2022/11/09 05:19:48;;;;;;;1.00;1.00;;;;;;;;;;5053670;28;20202;-85
2022/11/09 05:25:01;;;;;;;1.23;1.13;;;;;;;;;;5054549;28;20657;-85
2022/11/09 05:27:30;;;;;;;1.50;1.40;;;;;;;;;;5054486;28;20288;-85
2022/11/09 05:29:57;;;;;;;1.58;1.20;;;;;;;;;;5054077;28;20362;-85
2022/11/09 05:32:24;;;;;;;1.20;1.20;;;;;;;;;;5053263;28;20288;-85
2022/11/09 05:34:52;;;;;;;1.48;1.40;;;;;;;;;;5053448;28;20235;-84
2022/11/09 05:37:21;;;;;;;1.10;1.10;;;;;;;;;;5053626;28;20233;-85
2022/11/09 05:39:48;;;;;;;1.67;1.58;;;;;;;;;;5053616;28;20670;-85
2022/11/09 05:42:16;;;;;;;1.30;1.20;;;;;;;;;;5057052;28;20252;-82
2022/11/09 05:44:44;;;;;;;1.40;1.30;;;;;;;;;;5056767;28;20700;-83
2022/11/09 05:47:12;;;;;;;1.50;1.40;;;;;;;;;;5054320;28;20340;-82
2022/11/09 05:49:39;;;;;;;2.00;1.25;;;;;;;;;;5057430;28;20284;-82
2022/11/09 05:52:07;;;;;;;1.23;1.20;;;;;;;;;;5058230;28;20312;-83
2022/11/09 05:54:34;;;;;;;1.40;1.30;;;;;;;;;;5058133;28;20217;-82
2022/11/09 05:57:02;;;;;;;1.10;1.10;;;;;;;;;;5059379;28;20292;-82
2022/11/09 05:59:29;;;;;;;1.35;1.25;;;;;;;;;;5059050;28;20285;-82
2022/11/09 06:01:58;;;;;;;1.75;1.42;;;;;;;;;;5058587;28;20271;-82
2022/11/09 06:04:26;;;;;;;1.05;1.05;;;;;;;;;;5059714;28;20249;-83
2022/11/09 06:06:53;;;;;;;1.40;1.30;;;;;;;;;;5059647;28;20205;-82
2022/11/09 06:09:20;;;;;;;2.50;1.45;;;;;;;;;;5058705;28;20288;-81
2022/11/09 06:11:49;;;;;;;1.40;1.30;;;;;;;;;;5059246;28;20221;-82
2022/11/09 06:14:17;;;;;;;1.65;1.55;;;;;;;;;;5059404;28;20292;-84
2022/11/09 06:16:44;;;;;;;1.23;1.23;;;;;;;;;;5059988;28;20292;-82
2022/11/09 06:19:13;;;;;;;1.50;1.40;;;;;;;;;;5059260;28;20288;-82
2022/11/09 06:21:41;;;;;;;2.22;2.13;;;;;;;;;;5059500;28;20316;-84
2022/11/09 06:24:09;;;;;;;1.60;1.50;;;;;;;;;;5056186;28;20208;-83
2022/11/09 06:26:37;;;;;;;1.40;1.30;;;;;;;;;;5062401;28;20206;-82
2022/11/09 06:29:05;;;;;;;1.40;1.30;;;;;;;;;;5069848;28;20288;-83
2022/11/09 06:31:33;;;;;;;1.50;1.40;;;;;;;;;;5079049;28;20681;-84
2022/11/09 06:34:00;;;;;;;2.15;1.95;;;;;;;;;;5079362;28;20234;-83
2022/11/09 06:36:29;;;;;;;1.67;1.58;;;;;;;;;;5064929;28;20292;-83
2022/11/09 06:38:56;;;;;;;1.73;1.58;;;;;;;;;;5057983;28;20292;-83
2022/11/09 06:41:24;;;;;;;1.30;1.30;;;;;;;;;;5069182;28;20645;-84
2022/11/09 06:43:51;;;;;;;1.80;1.50;;;;;;;;;;5076968;28;20207;-82
2022/11/09 06:46:19;;;;;;;1.38;1.27;;;;;;;;;;5077067;28;20288;-82
2022/11/09 06:48:47;;;;;;;1.35;1.25;;;;;;;;;;5078286;28;20209;-82
2022/11/09 06:51:14;;;;;;;1.27;1.17;;;;;;;;;;5078352;28;20296;-83
2022/11/09 06:53:43;;;;;;;1.20;1.20;;;;;;;;;;5070364;28;20233;-83
2022/11/09 06:56:11;;;;;;;1.20;1.15;;;;;;;;;;5058692;28;20263;-83
2022/11/09 06:58:38;;;;;;;2.83;1.30;;;;;;;;;;5058638;28;20201;-83
2022/11/09 07:01:10;;;;;;;1.17;1.10;;;;;;;;;;5059784;28;20312;-81
2022/11/09 07:03:39;;;;;;;1.20;1.20;;;;;;;;;;5059544;28;20490;-82
2022/11/09 07:06:09;;;;;;;1.48;1.38;;;;;;;;;;5060035;28;20217;-82
2022/11/09 07:08:37;;;;;;;1.33;1.27;;;;;;;;;;5059711;28;20296;-83
2022/11/09 07:11:07;;;;;;;2.15;1.50;;;;;;;;;;5060769;28;20317;-84
2022/11/09 07:13:34;;;;;;;1.17;1.08;;;;;;;;;;5059317;28;20290;-83
2022/11/09 07:16:02;;;;;;;1.02;1.02;;;;;;;;;;5059873;28;20269;-81
2022/11/09 07:18:30;;;;;;;0.90;0.90;;;;;;;;;;5092575;22;20214;-86
2022/11/09 07:20:57;;;;;;;1.00;1.00;;;;;;;;;;5063167;28;20320;-87
2022/11/09 07:23:25;;;;;;;1.10;1.10;;;;;;;;;;5069600;28;20217;-85
2022/11/09 07:25:52;;;;;;;1.33;1.30;;;;;;;;;;5075252;28;20253;-85
2022/11/09 07:28:21;;;;;;;1.00;1.00;;;;;;;;;;5075930;28;20779;-86
2022/11/09 07:30:51;;;;;;;1.30;1.20;;;;;;;;;;5075760;28;20294;-85
2022/11/09 07:33:21;;;;;;;1.10;1.00;;;;;;;;;;5075723;28;20181;-85
2022/11/09 07:35:48;;;;;;;1.13;1.02;;;;;;;;;;5075936;28;20228;-85
2022/11/09 07:38:16;;;;;;;1.13;1.00;;;;;;;;;;5076375;28;20309;-84
2022/11/09 07:40:43;;;;;;;1.00;1.00;;;;;;;;;;5076961;28;20785;-83
2022/11/09 07:43:12;;;;;;;0.98;0.98;;;;;;;;;;5076743;28;20227;-84
2022/11/09 07:45:41;;;;;;;1.00;1.00;;;;;;;;;;5076151;28;20248;-84
2022/11/09 07:48:10;;;;;;;1.10;1.10;;;;;;;;;;5074575;28;20200;-85
2022/11/09 07:50:39;;;;;;;1.02;1.00;;;;;;;;;;5062779;28;20296;-84
2022/11/09 07:53:10;;;;;;;1.20;1.10;;;;;;;;;;5055084;28;20628;-84
2022/11/09 07:55:38;;;;;;;2.03;1.08;;;;;;;;;;5055049;28;20272;-83
2022/11/09 07:58:08;;;;;;;1.00;1.00;;;;;;;;;;5054924;28;20241;-83
2022/11/09 08:00:37;;;;;;;0.95;0.95;;;;;;;;;;5055486;28;20260;-82
2022/11/09 08:03:07;;;;;;;0.88;0.88;;;;;;;;;;5056095;28;20250;-84
2022/11/09 08:05:35;;;;;;;2.20;0.82;;;;;;;;;;5058134;28;20221;-84
2022/11/09 08:08:07;;;;;;;0.80;0.80;;;;;;;;;;5056240;28;20300;-83
2022/11/09 08:10:35;;;;;;;1.27;1.00;;;;;;;;;;5060255;28;20213;-83
2022/11/09 08:13:05;;;;;;;0.75;0.75;;;;;;;;;;5074952;28;20677;-82
2022/11/09 08:15:39;;;;;;;1.02;1.00;;;;;;;;;;5074563;28;20259;-85
2022/11/09 08:18:11;;;;;;;1.98;0.88;;;;;;;;;;5075461;28;20294;-85
2022/11/09 08:20:39;;;;;;;0.90;0.90;;;;;;;;;;5062569;28;20241;-84
2022/11/09 08:23:07;;;;;;;0.70;0.70;;;;;;;;;;5055296;28;20267;-84
2022/11/09 08:25:35;;;;;;;0.70;0.70;;;;;;;;;;5054910;28;20232;-84
2022/11/09 08:28:03;;;;;;;0.93;0.93;;;;;;;;;;5054511;28;20233;-84
2022/11/09 08:30:32;;;;;;;1.15;0.82;;;;;;;;;;5054868;28;20252;-83
2022/11/09 08:33:00;;;;;;;0.80;0.80;;;;;;;;;;5054871;28;20610;-83
2022/11/09 08:35:30;;;;;;;0.80;0.80;;;;;;;;;;5054227;28;20309;-83
2022/11/09 08:38:03;;;;;;;1.10;1.10;;;;;;;;;;5054133;28;20646;-84
2022/11/09 08:40:32;;;;;;;0.90;0.90;;;;;;;;;;5054689;28;20205;-83
2022/11/09 08:43:03;;;;;;;1.60;1.50;;;;;;;;;;5054662;28;20312;-83
2022/11/09 08:45:32;;;;;;;0.60;0.60;;;;;;;;;;5054412;28;20309;-84
2022/11/09 08:48:00;;;;;;;1.23;0.93;;;;;;;;;;5054180;28;20206;-83
2022/11/09 08:50:31;;;;;;;1.20;1.10;;;;;;;;;;5055140;28;20267;-84
2022/11/09 08:52:58;;;;;;;2.38;1.95;;;;;;;;;;5055333;28;20292;-84
2022/11/09 08:55:26;;;;;;;0.70;0.70;;;;;;;;;;5055134;28;20788;-83
2022/11/09 08:57:55;;;;;;;0.82;0.80;;;;;;;;;;5054495;28;20288;-85
2022/11/09 09:00:22;;;;;;;0.80;0.80;;;;;;;;;;5054604;28;20201;-85
2022/11/09 09:02:50;;;;;;;0.80;0.80;;;;;;;;;;5055162;28;20288;-85
2022/11/09 09:05:18;;;;;;;0.55;0.55;;;;;;;;;;5069637;22;20242;-86
2022/11/09 09:07:47;;;;;;;1.00;1.00;;;;;;;;;;5074641;28;20288;-87
2022/11/09 09:10:14;;;;;;;0.95;0.80;;;;;;;;;;5074163;28;20292;-86
2022/11/09 09:12:42;;;;;;;0.80;0.80;;;;;;;;;;5076630;28;20240;-85
2022/11/09 09:15:10;;;;;;;0.93;0.93;;;;;;;;;;5075237;28;20209;-86
2022/11/09 09:17:38;;;;;;;0.90;0.90;;;;;;;;;;5075578;28;20291;-86
2022/11/09 09:20:06;;;;;;;1.00;1.00;;;;;;;;;;5071329;28;20295;-84
2022/11/09 09:22:34;;;;;;;0.90;0.90;;;;;;;;;;5068463;28;20219;-84
2022/11/09 09:25:03;;;;;;;0.70;0.70;;;;;;;;;;5059701;28;20235;-82
2022/11/09 09:27:31;;;;;;;1.00;1.00;;;;;;;;;;5060247;28;20264;-83
2022/11/09 09:29:59;;;;;;;1.42;1.30;;;;;;;;;;5060886;28;20223;-85
2022/11/09 09:32:28;;;;;;;2.00;1.13;;;;;;;;;;5061567;28;20296;-85
2022/11/09 09:34:55;;;;;;;0.57;0.57;;;;;;;;;;5059546;28;20205;-84
2022/11/09 09:37:23;;;;;;;1.67;1.00;;;;;;;;;;5063337;28;20571;-84
2022/11/09 09:39:51;;;;;;;1.00;0.93;;;;;;;;;;5064429;28;20244;-85
2022/11/09 09:42:25;;;;;;;1.48;0.80;;;;;;;;;;5063413;28;20289;-87
2022/11/09 09:44:57;;;;;;;1.05;0.95;;;;;;;;;;5065062;28;20305;-87
2022/11/09 09:47:31;;;;;;;2.83;1.20;;;;;;;;;;5065231;28;20301;-86
2022/11/09 09:50:03;;;;;;;0.90;0.90;;;;;;;;;;5064687;28;20311;-86
2022/11/09 09:52:42;;;;;;;0.90;0.90;;;;;;;;;;5066155;28;20228;-87
2022/11/09 09:55:19;;;;;;;1.52;0.90;;;;;;;;;;5065344;28;20202;-83
2022/11/09 09:57:53;;;;;;;1.17;0.80;;;;;;;;;;5067764;28;20216;-86
2022/11/09 10:00:24;;;;;;;1.90;0.98;;;;;;;;;;5066121;28;20204;-86
2022/11/09 10:02:52;;;;;;;1.60;1.20;;;;;;;;;;5061703;28;20198;-85
2022/11/09 10:05:26;;;;;;;3.65;1.50;;;;;;;;;;5061968;28;20223;-85
2022/11/09 10:08:01;;;;;;;1.05;0.85;;;;;;;;;;5061627;28;20291;-85
2022/11/09 10:10:46;;;;;;;1.27;1.17;;;;;;;;;;5061624;28;20281;-86
2022/11/09 10:13:41;;;;;;;0.98;0.98;;;;;;;;;;5061586;28;20257;-86
2022/11/09 10:16:16;;;;;;;0.80;0.80;;;;;;;;;;5058163;28;20273;-86
2022/11/09 10:19:24;;;;;;;3.30;0.90;;;;;;;;;;5057081;28;20308;-86
2022/11/09 10:21:59;;;;;;;1.40;0.90;;;;;;;;;;5037144;28;20244;-86
2022/11/09 10:24:40;;;;;;;1.15;1.05;;;;;;;;;;5051808;28;20323;-87
2022/11/09 10:27:26;;;;;;;0.70;0.70;;;;;;;;;;5058435;28;20208;-85
2022/11/09 10:29:55;;;;;;;0.88;0.82;;;;;;;;;;5109264;22;20292;-86
2022/11/09 10:35:59;;;;;;;0.70;0.70;;;;;;;;;;5072102;28;20248;-86
2022/11/09 10:38:32;;;;;;;1.08;0.98;;;;;;;;;;5073494;28;20230;-85
2022/11/09 10:41:04;;;;;;;0.85;0.85;;;;;;;;;;5055222;28;20198;-85
2022/11/09 10:43:43;;;;;;;1.58;1.48;;;;;;;;;;5055497;28;20650;-85
2022/11/09 10:46:16;;;;;;;1.65;1.00;;;;;;;;;;5058740;28;20217;-85
2022/11/09 10:48:56;;;;;;;1.08;1.02;;;;;;;;;;5058136;28;20242;-86
2022/11/09 10:51:35;;;;;;;1.23;1.02;;;;;;;;;;5058852;28;20292;-86
2022/11/09 10:54:21;;;;;;;1.75;1.00;;;;;;;;;;5063019;28;20213;-86
2022/11/09 10:56:58;;;;;;;1.63;1.00;;;;;;;;;;5059635;28;20205;-86
2022/11/09 10:59:43;;;;;;;1.42;0.90;;;;;;;;;;5057615;28;20217;-86
2022/11/09 11:02:48;;;;;;;0.80;0.80;;;;;;;;;;5057483;28;20277;-86
2022/11/09 11:05:32;;;;;;;0.80;0.80;;;;;;;;;;4996539;28;20704;-86
2022/11/09 11:08:26;;;;;;;0.85;0.85;;;;;;;;;;4995979;28;20290;-87
2022/11/09 11:11:27;;;;;;;1.90;1.05;;;;;;;;;;5042730;28;20213;-85
2022/11/09 11:14:24;;;;;;;0.68;0.68;;;;;;;;;;5066201;28;20275;-86
2022/11/09 11:16:52;;;;;;;1.15;1.05;;;;;;;;;;5073647;28;20213;-85
2022/11/09 11:19:34;;;;;;;1.00;1.00;;;;;;;;;;5056497;28;20237;-86
2022/11/09 11:26:03;;;;;;;0.95;0.93;;;;;;;;;;5035863;28;20218;-85
2022/11/09 11:28:42;;;;;;;1.38;1.25;;;;;;;;;;5036780;28;20337;-86
2022/11/09 11:31:27;;;;;;;1.17;1.05;;;;;;;;;;5044947;28;20187;-87
2022/11/09 11:34:08;;;;;;;1.38;1.27;;;;;;;;;;5058785;28;20190;-86
2022/11/09 11:36:51;;;;;;;1.48;1.17;;;;;;;;;;5058445;28;20198;-85
2022/11/09 11:39:35;;;;;;;1.70;1.17;;;;;;;;;;5057274;28;20273;-87
2022/11/09 11:42:43;;;;;;;1.27;1.17;;;;;;;;;;5058190;28;20202;-84
2022/11/09 11:45:20;;;;;;;1.20;1.05;;;;;;;;;;5051225;28;20603;-86
2022/11/09 11:48:22;;;;;;;1.42;1.33;;;;;;;;;;5039657;28;20201;-86
2022/11/09 11:51:03;;;;;;;0.80;0.80;;;;;;;;;;5052951;28;20209;-86
2022/11/09 11:57:01;;;;;;;1.08;1.02;;;;;;;;;;5051112;28;20673;-85
2022/11/09 12:00:04;;;;;;;1.10;1.00;;;;;;;;;;5061690;28;20241;-83
2022/11/09 12:03:27;;;;;;;1.02;1.02;;;;;;;;;;5066744;28;20197;-83
2022/11/09 12:06:18;;;;;;;1.15;1.05;;;;;;;;;;5064564;28;20652;-84
2022/11/09 12:09:06;;;;;;;0.90;0.90;;;;;;;;;;5067043;28;20237;-83
2022/11/09 12:11:51;;;;;;;1.00;1.00;;;;;;;;;;5064947;28;20206;-85
2022/11/09 12:14:29;;;;;;;0.98;0.90;;;;;;;;;;5072360;28;20348;-84
2022/11/09 12:17:14;;;;;;;1.20;1.20;;;;;;;;;;5077344;28;20279;-85
2022/11/09 12:20:05;;;;;;;1.25;1.20;;;;;;;;;;5072127;28;20240;-83
2022/11/09 12:22:40;;;;;;;1.30;1.15;;;;;;;;;;5059572;28;20201;-83
2022/11/09 12:25:16;;;;;;;1.92;1.25;;;;;;;;;;5041620;28;20308;-83
2022/11/09 12:28:01;;;;;;;1.23;1.13;;;;;;;;;;5035723;28;20233;-83
2022/11/09 12:30:39;;;;;;;1.08;1.08;;;;;;;;;;5035782;28;20639;-83
2022/11/09 12:33:13;;;;;;;1.73;1.25;;;;;;;;;;5036667;28;20218;-85
2022/11/09 12:35:45;;;;;;;1.58;1.48;;;;;;;;;;5035079;28;20199;-85
2022/11/09 12:38:20;;;;;;;1.55;1.33;;;;;;;;;;5035404;28;20233;-86
2022/11/09 12:40:54;;;;;;;2.50;2.20;;;;;;;;;;5056996;28;20637;-86
2022/11/09 12:47:09;;;;;;;1.67;1.52;;;;;;;;;;5048932;28;20249;-85
2022/11/09 12:49:54;;;;;;;1.10;1.10;;;;;;;;;;5053042;28;20712;-86
2022/11/09 12:52:29;;;;;;;1.60;1.50;;;;;;;;;;5053694;28;20581;-86
2022/11/09 12:55:07;;;;;;;1.00;1.00;;;;;;;;;;5053185;28;20209;-86
2022/11/09 12:57:35;;;;;;;1.77;1.67;;;;;;;;;;5053199;28;20216;-85
2022/11/09 13:00:04;;;;;;;2.20;1.30;;;;;;;;;;5053386;28;20221;-86
2022/11/09 13:02:37;;;;;;;2.10;2.00;;;;;;;;;;5054484;28;20210;-86
2022/11/09 13:05:07;;;;;;;1.90;1.80;;;;;;;;;;5055321;28;20292;-86
2022/11/09 13:07:53;;;;;;;1.13;1.13;;;;;;;;;;5055043;28;20206;-85
2022/11/09 13:10:29;;;;;;;1.70;1.60;;;;;;;;;;5054669;28;20315;-85
2022/11/09 13:13:21;;;;;;;1.00;1.00;;;;;;;;;;5054327;28;20580;-86
2022/11/09 13:16:08;;;;;;;6.45;3.85;;;;;;;;;;5054243;28;20200;-84
2022/11/09 13:18:52;;;;;;;3.05;2.42;;;;;;;;;;5067242;22;20250;-84
2022/11/09 13:21:35;;;;;;;1.55;1.45;;;;;;;;;;5079026;28;20243;-83
2022/11/09 13:24:58;;;;;;;3.20;2.10;;;;;;;;;;5076453;28;20648;-84
2022/11/09 13:27:47;;;;;;;1.98;1.88;;;;;;;;;;5055227;28;20287;-86
2022/11/09 13:30:41;;;;;;;1.38;1.23;;;;;;;;;;5074035;28;20292;-84
2022/11/09 13:33:25;;;;;;;1.23;1.13;;;;;;;;;;5075378;28;20224;-87
2022/11/09 13:36:17;;;;;;;1.25;1.17;;;;;;;;;;5078423;28;20224;-87
2022/11/09 13:38:45;;;;;;;1.33;1.23;;;;;;;;;;5077557;28;20288;-84
2022/11/09 13:41:42;;;;;;;2.88;1.77;;;;;;;;;;5078825;28;20229;-85
2022/11/09 13:44:20;;;;;;;2.03;1.80;;;;;;;;;;5076416;28;20227;-85
2022/11/09 13:46:49;;;;;;;1.60;1.50;;;;;;;;;;5077542;28;20299;-86
2022/11/09 13:49:49;;;;;;;1.40;1.40;;;;;;;;;;5074728;28;20215;-85
2022/11/09 13:52:58;;;;;;;0.90;0.90;;;;;;;;;;4996300;28;20323;-84
2022/11/09 13:55:33;;;;;;;1.25;1.23;;;;;;;;;;5052685;28;20201;-84
2022/11/09 13:58:09;;;;;;;1.10;1.10;;;;;;;;;;5057532;28;20201;-84
2022/11/09 14:00:36;;;;;;;0.68;0.68;;;;;;;;;;5058156;28;20276;-86
2022/11/09 14:03:17;;;;;;;0.52;0.52;;;;;;;;;;5058484;28;20308;-86
2022/11/09 14:05:45;;;;;;;4.35;3.20;;;;;;;;;;5058380;28;20202;-85
2022/11/09 14:08:22;;;;;;;2.45;1.88;;;;;;;;;;5077510;28;20232;-84
2022/11/09 14:11:16;;;;;;;1.70;1.42;;;;;;;;;;5100836;28;20207;-84
2022/11/09 14:14:03;;;;;;;2.38;2.28;;;;;;;;;;5102058;28;20736;-85
2022/11/09 14:16:42;;;;;;;2.08;1.98;;;;;;;;;;5102196;28;20202;-86
2022/11/09 14:19:20;;;;;;;1.20;1.20;;;;;;;;;;5101853;28;20218;-86
2022/11/09 14:21:51;;;;;;;1.70;1.33;;;;;;;;;;5081386;28;20604;-85
2022/11/09 14:24:22;;;;;;;1.48;1.00;;;;;;;;;;5081572;28;20628;-85
2022/11/09 14:27:12;;;;;;;0.82;0.82;;;;;;;;;;5082439;28;20221;-85
2022/11/09 14:29:51;;;;;;;5.47;4.97;;;;;;;;;;5082271;28;20193;-86
2022/11/09 14:32:33;;;;;;;2.55;2.00;;;;;;;;;;5082255;28;20217;-85
2022/11/09 14:35:23;;;;;;;4.45;3.03;;;;;;;;;;5082492;28;20216;-86
2022/11/09 14:37:53;;;;;;;1.30;1.20;;;;;;;;;;5076272;28;20200;-87
2022/11/09 14:40:25;;;;;;;2.53;1.40;;;;;;;;;;5083982;28;20233;-88
2022/11/09 14:42:55;;;;;;;0.90;0.90;;;;;;;;;;5084470;28;20316;-86
2022/11/09 14:45:23;;;;;;;0.80;0.80;;;;;;;;;;5083545;28;20205;-85
2022/11/09 14:47:55;;;;;;;0.80;0.80;;;;;;;;;;5084981;28;20247;-85
2022/11/09 14:50:25;;;;;;;0.60;0.60;;;;;;;;;;5083971;28;20220;-86
2022/11/09 14:52:54;;;;;;;0.80;0.80;;;;;;;;;;5085517;28;20261;-87
2022/11/09 14:55:24;;;;;;;1.42;0.80;;;;;;;;;;5086941;28;20308;-85
2022/11/09 14:57:55;;;;;;;1.45;1.35;;;;;;;;;;5087717;28;20200;-86
2022/11/09 15:00:30;;;;;;;4.85;4.45;;;;;;;;;;5086560;28;20196;-87
2022/11/09 15:02:57;;;;;;;2.78;2.58;;;;;;;;;;5087458;28;20216;-86
2022/11/09 15:05:37;;;;;;;2.05;1.92;;;;;;;;;;5087503;28;20705;-85
2022/11/09 15:08:06;;;;;;;1.15;1.10;;;;;;;;;;5086256;28;20223;-86
2022/11/09 15:10:35;;;;;;;1.83;1.00;;;;;;;;;;5084472;28;20225;-87
2022/11/09 15:13:04;;;;;;;2.03;1.00;;;;;;;;;;5083831;28;20243;-87
2022/11/09 15:15:34;;;;;;;9.82;8.80;;;;;;;;;;5086721;28;20177;-86
2022/11/09 15:18:02;;;;;;;4.20;3.38;;;;;;;;;;5082326;28;20246;-86
2022/11/09 15:20:33;;;;;;;1.98;1.88;;;;;;;;;;5083518;28;20292;-86
2022/11/09 15:23:02;;;;;;;1.75;1.45;;;;;;;;;;5086072;28;20221;-87
2022/11/09 15:25:35;;;;;;;1.40;1.17;;;;;;;;;;5085622;28;20250;-85
2022/11/09 15:28:22;;;;;;;1.02;0.93;;;;;;;;;;5085048;28;20205;-85
2022/11/09 15:31:14;;;;;;;0.65;0.65;;;;;;;;;;5087100;28;20201;-86
2022/11/09 15:33:50;;;;;;;1.05;1.00;;;;;;;;;;5094988;28;20216;-87